createdAt,value
2022-08-12T00:00:34.826Z,4.10
2022-08-12T00:03:20.610Z,5.75
2022-08-12T00:06:07.691Z,7.07
2022-08-12T00:08:53.580Z,4.43
2022-08-12T00:11:39.306Z,6.53
2022-08-12T00:14:24.688Z,4.70
2022-08-12T00:17:10.052Z,4.50
2022-08-12T00:19:55.642Z,6.60
2022-08-12T00:22:41.358Z,7.35
2022-08-12T00:26:19.042Z,4.80
2022-08-12T00:28:32.368Z,7.18
2022-08-12T00:31:17.830Z,5.38
2022-08-12T00:34:02.924Z,5.07
2022-08-12T00:36:50.576Z,6.15
2022-08-12T00:39:36.067Z,7.10
2022-08-12T00:42:11.567Z,5.30
2022-08-12T00:44:39.211Z,5.93
2022-08-12T00:47:06.130Z,5.90
2022-08-12T00:49:35.722Z,7.63
2022-08-12T00:52:07.101Z,10.10
2022-08-12T00:54:34.755Z,4.55
2022-08-12T00:57:04.993Z,5.72
2022-08-12T00:59:32.636Z,7.35
2022-08-12T01:02:10.992Z,8.35
2022-08-12T01:04:58.350Z,8.20
2022-08-12T01:07:45.387Z,9.02
2022-08-12T01:10:32.667Z,7.03
2022-08-12T01:13:18.892Z,6.95
2022-08-12T01:15:47.429Z,6.43
2022-08-12T01:18:14.531Z,6.80
2022-08-12T01:20:50.124Z,7.95
2022-08-12T01:23:25.763Z,7.32
2022-08-12T01:25:56.260Z,10.88
2022-08-12T01:28:24.405Z,7.68
2022-08-12T01:30:51.268Z,8.63
2022-08-12T01:33:21.124Z,7.78
2022-08-12T01:35:57.928Z,9.52
2022-08-12T01:38:35.848Z,7.05
2022-08-12T01:41:03.202Z,9.70
2022-08-12T01:43:30.655Z,8.82
2022-08-12T01:46:04.579Z,7.88
2022-08-12T01:48:50.568Z,6.53
2022-08-12T01:52:19.918Z,7.70
2022-08-12T01:54:14.397Z,7.78
2022-08-12T01:56:59.223Z,7.07
2022-08-12T01:59:49.621Z,8.32
2022-08-12T02:02:27.176Z,10.10
2022-08-12T02:05:27.835Z,6.40
2022-08-12T02:08:37.196Z,8.40
2022-08-12T02:11:18.944Z,11.10
2022-08-12T02:13:55.454Z,5.55
2022-08-12T02:16:40.909Z,6.97
2022-08-12T02:19:22.083Z,5.82
2022-08-12T02:21:49.762Z,6.20
2022-08-12T02:24:19.983Z,5.25
2022-08-12T02:26:50.330Z,4.97
2022-08-12T02:29:18.623Z,4.93
2022-08-12T02:31:45.891Z,9.32
2022-08-12T02:34:13.220Z,6.57
2022-08-12T02:36:40.335Z,7.80
2022-08-12T02:39:13.368Z,4.72
2022-08-12T02:41:42.670Z,6.13
2022-08-12T02:44:09.985Z,6.50
2022-08-12T02:46:37.601Z,5.25
2022-08-12T02:49:14.899Z,4.63
2022-08-12T02:51:44.819Z,7.20
2022-08-12T02:54:11.560Z,5.55
2022-08-12T02:56:41.039Z,6.25
2022-08-12T02:59:10.736Z,6.07
2022-08-12T03:01:47.509Z,5.07
2022-08-12T03:04:21.078Z,6.45
2022-08-12T03:07:11.088Z,5.15
2022-08-12T03:10:03.807Z,6.68
2022-08-12T03:12:34.195Z,4.88
2022-08-12T03:15:02.902Z,5.35
2022-08-12T03:17:33.895Z,6.60
2022-08-12T03:20:10.249Z,6.38
2022-08-12T03:22:40.827Z,5.05
2022-08-12T03:25:12.519Z,4.95
2022-08-12T03:27:47.537Z,5.97
2022-08-12T03:30:14.177Z,5.72
2022-08-12T03:32:42.257Z,4.80
2022-08-12T03:35:40.657Z,4.50
2022-08-12T03:38:16.350Z,4.72
2022-08-12T03:41:09.005Z,3.75
2022-08-12T03:43:57.620Z,7.55
2022-08-12T03:46:46.889Z,6.47
2022-08-12T03:49:32.159Z,7.82
2022-08-12T03:52:17.788Z,5.30
2022-08-12T03:55:03.037Z,5.65
2022-08-12T03:57:48.718Z,5.00
2022-08-12T04:00:25.216Z,4.55
2022-08-12T04:03:01.976Z,6.75
2022-08-12T04:05:54.419Z,6.75
2022-08-12T04:08:17.376Z,5.38
2022-08-12T04:11:02.347Z,4.40
2022-08-12T04:13:29.149Z,3.45
2022-08-12T04:15:56.260Z,5.28
2022-08-12T04:18:23.668Z,5.22
2022-08-12T04:20:50.247Z,4.03
2022-08-12T04:23:17.144Z,4.40
2022-08-12T04:25:44.442Z,4.72
2022-08-12T04:28:13.304Z,5.30
2022-08-12T04:30:40.445Z,3.20
2022-08-12T04:33:09.598Z,4.22
2022-08-12T04:35:36.910Z,2.75
2022-08-12T04:38:03.619Z,4.70
2022-08-12T04:40:31.789Z,3.80
2022-08-12T04:42:58.784Z,4.90
2022-08-12T04:45:25.390Z,4.63
2022-08-12T04:47:52.150Z,3.65
2022-08-12T04:50:34.935Z,5.25
2022-08-12T04:55:30.192Z,4.55
2022-08-12T04:57:56.753Z,3.00
2022-08-12T05:00:23.359Z,3.42
2022-08-12T05:02:49.963Z,3.45
2022-08-12T05:05:23.066Z,3.88
2022-08-12T05:07:54.194Z,3.17
2022-08-12T05:10:34.051Z,3.28
2022-08-12T05:13:04.248Z,4.22
2022-08-12T05:15:30.929Z,2.60
2022-08-12T05:18:00.190Z,3.85
2022-08-12T05:20:29.514Z,5.30
2022-08-12T05:23:26.055Z,3.83
2022-08-12T05:25:56.517Z,4.65
2022-08-12T05:28:24.352Z,3.58
2022-08-12T05:30:50.989Z,5.70
2022-08-12T05:33:17.550Z,4.78
2022-08-12T05:35:44.814Z,5.13
2022-08-12T05:38:34.135Z,7.70
2022-08-12T05:41:01.616Z,6.10
2022-08-12T05:43:28.983Z,4.47
2022-08-12T05:45:55.578Z,3.70
2022-08-12T05:48:22.160Z,3.28
2022-08-12T05:50:48.886Z,3.63
2022-08-12T05:53:15.728Z,4.10
2022-08-12T05:55:42.702Z,5.25
2022-08-12T05:58:09.300Z,5.30
2022-08-12T06:00:36.287Z,3.63
2022-08-12T06:03:03.212Z,4.60
2022-08-12T06:05:43.198Z,3.90
2022-08-12T06:08:20.916Z,4.38
2022-08-12T06:10:47.493Z,3.70
2022-08-12T06:13:25.694Z,4.88
2022-08-12T06:15:55.599Z,2.88
2022-08-12T06:18:24.451Z,2.75
2022-08-12T06:21:01.736Z,3.17
2022-08-12T06:23:29.094Z,3.85
2022-08-12T06:25:56.300Z,3.50
2022-08-12T06:28:23.025Z,2.55
2022-08-12T06:31:08.580Z,4.43
2022-08-12T06:33:56.077Z,2.90
2022-08-12T06:36:29.910Z,2.53
2022-08-12T06:39:00.326Z,3.00
2022-08-12T06:42:27.712Z,2.50
2022-08-12T06:46:59.377Z,3.53
2022-08-12T06:49:25.918Z,3.53
2022-08-12T06:51:56.747Z,3.30
2022-08-12T06:54:31.976Z,2.15
2022-08-12T06:58:06.070Z,4.65
2022-08-12T06:59:51.054Z,2.47
2022-08-12T07:02:19.814Z,3.45
2022-08-12T07:04:47.580Z,4.25
2022-08-12T07:07:14.142Z,5.13
2022-08-12T07:10:03.939Z,5.00
2022-08-12T07:12:29.201Z,3.85
2022-08-12T07:14:58.332Z,2.72
2022-08-12T07:17:25.588Z,3.45
2022-08-12T07:19:53.716Z,3.35
2022-08-12T07:22:23.259Z,3.13
2022-08-12T07:25:09.964Z,3.42
2022-08-12T07:27:41.002Z,5.18
2022-08-12T07:30:08.041Z,3.00
2022-08-12T07:32:34.603Z,2.53
2022-08-12T07:35:02.271Z,2.53
2022-08-12T07:37:29.006Z,5.05
2022-08-12T07:40:00.222Z,2.85
2022-08-12T07:42:28.045Z,4.15
2022-08-12T07:44:55.996Z,1.45
2022-08-12T07:47:23.130Z,2.42
2022-08-12T07:50:04.184Z,2.80
2022-08-12T07:52:32.475Z,1.65
2022-08-12T07:55:00.012Z,1.55
2022-08-12T07:57:29.697Z,1.25
2022-08-12T07:59:56.336Z,1.23
2022-08-12T08:02:27.013Z,1.58
2022-08-12T08:04:56.645Z,1.33
2022-08-12T08:07:24.268Z,1.05
2022-08-12T08:09:58.583Z,1.10
2022-08-12T08:12:45.178Z,1.95
2022-08-12T08:15:11.687Z,1.63
2022-08-12T08:17:38.818Z,2.20
2022-08-12T08:20:06.488Z,1.20
2022-08-12T08:22:41.579Z,1.38
2022-08-12T08:25:35.207Z,1.00
2022-08-12T08:27:55.976Z,1.08
2022-08-12T08:30:23.968Z,1.90
2022-08-12T08:32:50.535Z,1.63
2022-08-12T08:35:17.052Z,1.73
2022-08-12T08:37:47.021Z,3.33
2022-08-12T08:40:33.370Z,1.50
2022-08-12T08:42:59.896Z,1.25
2022-08-12T08:45:27.792Z,1.23
2022-08-12T08:47:57.225Z,2.60
2022-08-12T08:50:27.275Z,2.55
2022-08-12T08:52:53.805Z,0.75
2022-08-12T08:55:27.382Z,1.33
2022-08-12T08:57:56.717Z,2.78
2022-08-12T09:00:23.331Z,2.63
2022-08-12T09:02:58.636Z,1.20
2022-08-12T09:05:26.016Z,1.90
2022-08-12T09:10:40.716Z,1.58
2022-08-12T09:14:10.130Z,1.20
2022-08-12T09:16:23.103Z,3.08
2022-08-12T09:18:52.409Z,1.48
2022-08-12T09:21:19.619Z,1.48
2022-08-12T09:23:57.317Z,1.45
2022-08-12T09:26:29.022Z,1.77
2022-08-12T09:28:56.441Z,1.35
2022-08-12T09:32:06.611Z,1.58
2022-08-12T09:34:28.085Z,1.45
2022-08-12T09:37:01.600Z,1.95
2022-08-12T09:40:01.937Z,2.10
2022-08-12T09:42:45.692Z,1.92
2022-08-12T09:47:57.117Z,1.83
2022-08-12T09:50:26.733Z,2.97
2022-08-12T09:53:15.116Z,0.82
2022-08-12T09:56:01.243Z,1.52
2022-08-12T09:58:57.299Z,2.53
2022-08-12T10:01:23.425Z,2.60
2022-08-12T10:04:03.148Z,1.17
2022-08-12T10:06:35.923Z,1.50
2022-08-12T10:09:08.362Z,3.15
2022-08-12T10:12:09.889Z,1.80
2022-08-12T10:14:37.994Z,1.55
2022-08-12T10:17:08.815Z,1.52
2022-08-12T10:19:37.949Z,3.03
2022-08-12T10:22:16.804Z,1.63
2022-08-12T10:25:17.297Z,1.27
2022-08-12T10:28:08.222Z,0.95
2022-08-12T10:30:44.142Z,1.95
2022-08-12T10:33:31.502Z,1.42
2022-08-12T10:36:00.139Z,1.65
2022-08-12T10:38:38.492Z,1.58
2022-08-12T10:41:56.959Z,4.10
2022-08-12T10:44:17.304Z,2.05
2022-08-12T10:46:49.082Z,2.05
2022-08-12T10:50:03.226Z,4.75
2022-08-12T10:52:34.271Z,2.17
2022-08-12T10:54:51.196Z,3.83
2022-08-12T10:58:27.604Z,3.72
2022-08-12T11:00:30.604Z,3.33
2022-08-12T11:04:26.564Z,3.03
2022-08-12T11:07:03.031Z,2.45
2022-08-12T11:08:34.142Z,3.92
2022-08-12T11:11:13.313Z,2.25
2022-08-12T11:13:46.030Z,2.80
2022-08-12T11:16:21.693Z,2.25
2022-08-12T11:18:54.988Z,3.13
2022-08-12T11:21:22.862Z,5.07
2022-08-12T11:24:30.331Z,4.15
2022-08-12T11:29:25.716Z,3.55
2022-08-12T11:32:02.098Z,1.58
2022-08-12T11:34:53.484Z,3.35
2022-08-12T11:37:26.012Z,2.90
2022-08-12T11:42:37.363Z,2.65
2022-08-12T11:45:13.018Z,3.50
2022-08-12T11:47:43.158Z,3.25
2022-08-12T11:50:11.546Z,3.80
2022-08-12T11:52:56.096Z,2.38
2022-08-12T11:55:23.859Z,4.93
2022-08-12T11:58:38.328Z,2.67
2022-08-12T12:03:44.131Z,4.57
2022-08-12T12:06:16.778Z,3.13
2022-08-12T12:08:47.052Z,4.80
2022-08-12T12:11:17.691Z,2.40
2022-08-12T12:14:08.345Z,5.20
2022-08-12T12:16:33.728Z,6.15
2022-08-12T12:21:47.058Z,3.58
2022-08-12T12:24:21.108Z,4.65
2022-08-12T12:27:00.209Z,3.95
2022-08-12T12:30:19.849Z,8.38
2022-08-12T12:32:14.959Z,4.72
2022-08-12T12:35:17.774Z,6.53
2022-08-12T12:38:04.499Z,3.97
2022-08-12T12:40:15.287Z,4.70
2022-08-12T12:42:55.438Z,5.38
2022-08-12T12:45:27.279Z,3.65
2022-08-12T12:47:56.926Z,3.55
2022-08-12T12:50:35.056Z,7.07
2022-08-12T12:53:03.049Z,4.25
2022-08-12T12:55:35.508Z,3.90
2022-08-12T12:58:04.839Z,3.90
2022-08-12T13:00:32.824Z,3.05
2022-08-12T13:02:59.914Z,3.05
2022-08-12T13:05:42.478Z,4.90
2022-08-12T13:08:28.543Z,3.25
2022-08-12T13:11:04.200Z,3.55
2022-08-12T13:14:09.117Z,2.88
2022-08-12T13:16:21.687Z,6.00
2022-08-12T13:18:52.211Z,3.08
2022-08-12T13:21:33.306Z,3.20
2022-08-12T13:24:10.494Z,2.67
2022-08-12T13:26:37.964Z,4.78
2022-08-12T13:29:04.623Z,2.92
2022-08-12T13:31:35.650Z,3.53
2022-08-12T13:34:33.517Z,4.55
2022-08-12T13:37:00.537Z,2.85
2022-08-12T13:39:27.102Z,3.95
2022-08-12T13:41:54.120Z,3.90
2022-08-12T13:44:20.731Z,3.95
2022-08-12T13:46:59.005Z,5.22
2022-08-12T13:49:54.831Z,4.20
2022-08-12T13:52:13.807Z,4.68
2022-08-12T13:54:40.536Z,3.58
2022-08-12T13:57:11.108Z,3.53
2022-08-12T13:59:47.883Z,4.57
2022-08-12T14:02:16.588Z,4.93
2022-08-12T14:04:45.574Z,7.30
2022-08-12T14:07:23.382Z,6.03
2022-08-12T14:10:11.424Z,4.75
2022-08-12T14:12:54.770Z,4.22
2022-08-12T14:18:08.179Z,5.25
2022-08-12T14:20:34.844Z,7.18
2022-08-12T14:24:01.389Z,4.20
2022-08-12T14:25:48.734Z,4.60
2022-08-12T14:28:19.309Z,5.07
2022-08-12T14:30:59.550Z,5.93
2022-08-12T14:33:44.497Z,5.05
2022-08-12T14:36:12.876Z,4.75
2022-08-12T14:38:44.466Z,6.75
2022-08-12T14:41:17.059Z,6.75
2022-08-12T14:44:04.570Z,5.07
2022-08-12T14:46:30.984Z,9.02
2022-08-12T14:48:57.744Z,3.85
2022-08-12T14:52:44.211Z,4.72
2022-08-12T14:57:05.740Z,8.35
2022-08-12T15:00:04.183Z,4.38
2022-08-12T15:02:30.991Z,6.72
2022-08-12T15:05:03.503Z,6.50
2022-08-12T15:07:33.167Z,4.68
2022-08-12T15:10:32.515Z,4.45
2022-08-12T15:13:07.684Z,5.93
2022-08-12T15:15:37.643Z,5.65
2022-08-12T15:18:15.375Z,5.70
2022-08-12T15:20:48.091Z,4.53
2022-08-12T15:23:21.353Z,5.25
2022-08-12T15:25:48.806Z,4.82
2022-08-12T15:28:22.358Z,7.05
2022-08-12T15:30:52.298Z,8.82
2022-08-12T15:33:24.049Z,4.85
2022-08-12T15:35:53.961Z,6.93
2022-08-12T15:38:24.586Z,4.95
2022-08-12T15:40:54.684Z,5.28
2022-08-12T15:43:35.571Z,4.45
2022-08-12T15:46:15.094Z,4.97
2022-08-12T15:51:09.958Z,6.57
2022-08-12T15:53:55.215Z,4.97
2022-08-12T15:56:29.522Z,6.45
2022-08-12T16:01:35.191Z,7.40
2022-08-12T16:04:02.648Z,7.00
2022-08-12T16:07:03.649Z,7.00
2022-08-12T16:09:56.769Z,5.95
2022-08-12T16:12:12.044Z,4.05
2022-08-12T16:14:39.174Z,5.53
2022-08-12T16:17:09.071Z,7.07
2022-08-12T16:20:03.859Z,5.18
2022-08-12T16:22:29.044Z,3.97
2022-08-12T16:24:57.242Z,7.32
2022-08-12T16:27:25.687Z,4.88
2022-08-12T16:29:57.556Z,5.72
2022-08-12T16:32:31.477Z,5.03
2022-08-12T16:34:59.903Z,7.43
2022-08-12T16:37:33.028Z,5.63
2022-08-12T16:40:14.556Z,4.70
2022-08-12T16:42:42.249Z,4.80
2022-08-12T16:45:23.447Z,4.88
2022-08-12T16:48:00.685Z,4.88
2022-08-12T16:50:31.041Z,7.35
2022-08-12T16:52:59.888Z,5.47
2022-08-12T16:55:42.344Z,5.68
2022-08-12T16:58:18.516Z,6.78
2022-08-12T17:00:57.325Z,5.10
2022-08-12T17:03:29.009Z,5.82
2022-08-12T17:05:57.019Z,4.80
2022-08-12T17:08:29.111Z,5.40
2022-08-12T17:10:56.183Z,5.70
2022-08-12T17:13:24.160Z,7.05
2022-08-12T17:16:05.642Z,7.35
2022-08-12T17:18:43.240Z,8.38
2022-08-12T17:21:40.118Z,8.65
2022-08-12T17:24:10.568Z,6.28
2022-08-12T17:26:44.999Z,6.53
2022-08-12T17:29:19.593Z,9.00
2022-08-12T17:32:02.930Z,7.13
2022-08-12T17:34:50.479Z,6.78
2022-08-12T17:37:17.297Z,5.93
2022-08-12T17:40:12.314Z,6.68
2022-08-12T17:42:32.675Z,7.28
2022-08-12T17:45:17.235Z,6.57
2022-08-12T17:47:45.422Z,6.80
2022-08-12T17:50:28.714Z,7.57
2022-08-12T17:53:00.464Z,7.75
2022-08-12T17:55:40.477Z,7.40
2022-08-12T17:58:12.943Z,10.02
2022-08-12T18:00:42.593Z,7.80
2022-08-12T18:03:09.616Z,9.57
2022-08-12T18:05:55.666Z,8.38
2022-08-12T18:08:33.557Z,6.32
2022-08-12T18:11:38.348Z,8.05
2022-08-12T18:14:06.211Z,6.13
2022-08-12T18:16:34.729Z,6.93
2022-08-12T18:19:02.424Z,10.45
2022-08-12T18:22:01.211Z,7.30
2022-08-12T18:24:21.913Z,7.40
2022-08-12T18:26:52.048Z,6.40
2022-08-12T18:29:19.215Z,6.70
2022-08-12T18:31:58.895Z,6.28
2022-08-12T18:34:29.314Z,8.35
2022-08-12T18:36:57.287Z,7.40
2022-08-12T18:39:23.837Z,8.55
2022-08-12T18:41:51.621Z,7.93
2022-08-12T18:44:19.269Z,10.40
2022-08-12T18:46:58.069Z,6.72
2022-08-12T18:49:34.630Z,7.15
2022-08-12T18:52:05.460Z,8.02
2022-08-12T18:54:37.582Z,9.82
2022-08-12T18:57:19.831Z,7.80
2022-08-12T19:00:07.079Z,8.93
2022-08-12T19:02:40.355Z,9.02
2022-08-12T19:05:10.182Z,10.32
2022-08-12T19:07:49.324Z,9.30
2022-08-12T19:10:17.847Z,10.55
2022-08-12T19:13:08.363Z,8.73
2022-08-12T19:15:42.335Z,10.38
2022-08-12T19:18:10.349Z,10.00
2022-08-12T19:20:39.395Z,8.77
2022-08-12T19:23:08.153Z,10.43
2022-08-12T19:26:00.864Z,8.80
2022-08-12T19:28:35.741Z,8.85
2022-08-12T19:31:55.872Z,13.13
2022-08-12T19:37:14.571Z,9.43
2022-08-12T19:40:09.496Z,10.10
2022-08-12T19:42:28.944Z,10.23
2022-08-12T19:45:01.388Z,11.35
2022-08-12T19:47:39.136Z,11.02
2022-08-12T19:50:06.403Z,10.88
2022-08-12T19:52:33.838Z,10.15
2022-08-12T19:55:04.811Z,9.80
2022-08-12T19:57:33.839Z,12.37
2022-08-12T20:00:14.012Z,11.40
2022-08-12T20:02:48.336Z,8.85
2022-08-12T20:06:03.513Z,9.00
2022-08-12T20:08:04.077Z,9.45
2022-08-12T20:10:35.476Z,8.98
2022-08-12T20:13:18.351Z,10.90
2022-08-12T20:15:59.660Z,11.73
2022-08-12T20:18:53.441Z,11.55
2022-08-12T20:21:16.099Z,11.18
2022-08-12T20:23:59.790Z,10.73
2022-08-12T20:26:27.829Z,9.88
2022-08-12T20:28:54.928Z,10.20
2022-08-12T20:31:21.487Z,9.68
2022-08-12T20:33:56.492Z,9.18
2022-08-12T20:36:42.672Z,8.48
2022-08-12T20:39:37.143Z,9.48
2022-08-12T20:42:00.007Z,9.35
2022-08-12T20:44:26.903Z,11.77
2022-08-12T20:46:58.181Z,11.30
2022-08-12T20:49:24.939Z,9.40
2022-08-12T20:51:56.248Z,10.55
2022-08-12T20:54:23.073Z,9.23
2022-08-12T20:57:01.044Z,9.70
2022-08-12T21:02:15.679Z,9.13
2022-08-12T21:05:00.795Z,8.30
2022-08-12T21:07:27.690Z,7.28
2022-08-12T21:10:01.404Z,8.15
2022-08-12T21:12:34.547Z,10.90
2022-08-12T21:15:23.614Z,8.40
2022-08-12T21:18:11.031Z,7.60
2022-08-12T21:20:55.501Z,7.22
2022-08-12T21:23:23.270Z,9.50
2022-08-12T21:25:50.963Z,10.13
2022-08-12T21:28:21.156Z,9.90
2022-08-12T21:31:11.526Z,10.25
2022-08-12T21:33:58.881Z,9.43
2022-08-12T21:36:22.959Z,9.65
2022-08-12T21:39:19.077Z,8.90
2022-08-12T21:41:52.656Z,9.52
2022-08-12T21:45:43.902Z,9.45
2022-08-12T21:47:21.024Z,9.93
2022-08-12T21:50:06.502Z,9.95
2022-08-12T21:52:36.113Z,12.70
2022-08-12T21:55:08.011Z,9.38
2022-08-12T21:57:48.045Z,10.27
2022-08-12T22:00:21.375Z,9.90
2022-08-12T22:03:07.890Z,9.80
2022-08-12T22:05:53.654Z,10.10
2022-08-12T22:08:22.078Z,9.77
2022-08-12T22:10:52.498Z,12.88
2022-08-12T22:14:04.239Z,11.65
2022-08-12T22:16:10.734Z,10.70
2022-08-12T22:18:39.243Z,11.45
2022-08-12T22:21:06.159Z,11.07
2022-08-12T22:23:51.582Z,11.23
2022-08-12T22:26:37.306Z,12.18
2022-08-12T22:29:23.644Z,12.00
2022-08-12T22:31:50.440Z,13.52
2022-08-12T22:34:18.349Z,16.75
2022-08-12T22:36:45.765Z,11.10
2022-08-12T22:39:15.731Z,12.63
2022-08-12T22:42:01.347Z,10.18
2022-08-12T22:44:52.766Z,11.07
2022-08-12T22:47:45.779Z,10.35
2022-08-12T22:50:26.988Z,12.23
2022-08-12T22:53:17.107Z,10.95
2022-08-12T22:55:58.939Z,11.38
2022-08-12T22:58:33.563Z,11.35
2022-08-12T23:01:02.292Z,9.75
2022-08-12T23:03:48.557Z,10.27
2022-08-12T23:06:16.923Z,11.07
2022-08-12T23:08:43.605Z,9.73
2022-08-12T23:11:10.275Z,9.73
2022-08-12T23:13:45.865Z,13.20
2022-08-12T23:16:27.763Z,11.82
2022-08-12T23:18:59.066Z,12.00
2022-08-12T23:21:26.442Z,11.57
2022-08-12T23:24:14.400Z,11.70
2022-08-12T23:27:02.434Z,13.45
2022-08-12T23:29:29.980Z,12.05
2022-08-12T23:32:10.966Z,12.68
2022-08-12T23:34:37.780Z,13.40
2022-08-12T23:37:05.035Z,12.55
2022-08-12T23:40:14.371Z,12.07
2022-08-12T23:42:20.206Z,12.13
2022-08-12T23:44:48.421Z,12.25
2022-08-12T23:47:16.111Z,13.35
2022-08-12T23:49:56.207Z,13.52
2022-08-12T23:52:30.582Z,12.35
2022-08-12T23:55:23.374Z,12.85
2022-08-12T23:58:17.854Z,14.82
